Flight Track Log - Related Links

Times and Time Zones

All times are in EDT time to prevent confusion due to time zone crossing. See the SWA395 flight status page for this flight to view local times or setup timezone preferences in your user account.

Time Position Orientation Groundspeed Altitude Reporting Facility
EDT Latitude Longitude Course Direction KTS MPH feet Rate Location/Type
Thu 04:11:19 PM 36.1956 -95.8658 133° Southeast 164 189 1,600  Level Kansas City Center
Thu 04:12:37 PM 36.1578 -95.8164 133° Southeast 219 252 4,900 2,257 Climbing Kansas City Center
Thu 04:13:08 PM 36.1361 -95.8444 226° Southwest 232 267 5,700 2,073 Climbing Kansas City Center
Thu 04:13:32 PM 36.1361 -95.8839 270° West 277 319 6,800 3,300 Climbing Kansas City Center
Thu 04:14:08 PM 36.1322 -95.9408 265° West 273 314 9,000 3,836 Climbing Kansas City Center
Thu 04:14:33 PM 36.1275 -95.9783 261° West 275 316 10,700 2,156 Climbing Kansas City Center
Thu 04:15:12 PM 36.1236 -96.0353 265° West 276 318 11,300 1,500 Climbing Kansas City Center
Thu 04:16:13 PM 36.1158 -96.1536 265° West 333 383 13,200 2,256 Climbing Kansas City Center
Thu 04:17:17 PM 36.1075 -96.2767 265° West 353 406 16,000 2,274 Climbing Kansas City Center
Thu 04:18:17 PM 36.0986 -96.4031 265° West 364 419 17,900 1,984 Climbing Kansas City Center
Thu 04:19:21 PM 36.0897 -96.5356 265° West 379 436 20,100 2,371 Climbing Kansas City Center
Thu 04:20:21 PM 36.0769 -96.6942 264° West 386 444 22,800 2,132 Climbing Kansas City Center
Thu 04:21:22 PM 36.0519 -96.8175 256° West 391 450 24,400 1,392 Climbing Kansas City Center
Thu 04:22:26 PM 36.0247 -96.9506 256° West 398 458 25,700 1,392 Climbing Kansas City Center
Thu 04:23:27 PM 35.9972 -97.0847 256° West 403 464 27,300 1,935 Climbing Kansas City Center
Thu 04:24:30 PM 35.9658 -97.2408 256° West 396 456 29,700 1,680 Climbing Kansas City Center
Thu 04:25:32 PM 35.9414 -97.3675 257° West 387 445 30,800 1,220 Climbing Kansas City Center
Thu 04:26:33 PM 35.9467 -97.4989 273° West 386 444 32,200 1,452 Climbing Kansas City Center
Thu 04:27:36 PM 35.9519 -97.6267 273° West 380 437 33,800 1,597 Climbing Kansas City Center
Thu 04:28:37 PM 35.9567 -97.7497 273° West 367 422 35,500 1,056 Climbing Kansas City Center
Thu 04:29:41 PM 35.9625 -97.8903 273° West 349 402 36,000 240 Climbing Kansas City Center
Thu 04:30:42 PM 35.9672 -98.0106 273° West 351 404 36,000  Level Kansas City Center
Thu 04:31:46 PM 35.9725 -98.1244 273° West 353 406 36,000  Level Kansas City Center
Thu 04:32:47 PM 35.9769 -98.2467 273° West 356 410 36,000  Level Kansas City Center
Thu 04:33:47 PM 35.9808 -98.3697 272° West 357 411 36,000  Level Kansas City Center
Thu 04:34:52 PM 35.9875 -98.5158 273° West 356 410 36,000  Level Kansas City Center
Thu 04:35:53 PM 35.9917 -98.6386 272° West 356 410 36,000  Level Kansas City Center
Thu 04:36:53 PM 35.9961 -98.7622 273° West 353 406 36,000  Level Kansas City Center
Thu 04:37:57 PM 36.0003 -98.8828 272° West 353 406 36,000  Level Kansas City Center
Thu 04:38:57 PM 36.0047 -99.0031 273° West 352 405 36,000  Level Kansas City Center
Thu 04:40:02 PM 36.0094 -99.1242 273° West 353 406 36,000  Level Kansas City Center
Thu 04:41:03 PM 36.0164 -99.2653 274° West 350 403 36,000  Level Kansas City Center
Thu 04:42:06 PM 36.0169 -99.3753 270° West 351 404 36,000  Level Kansas City Center
Thu 04:43:06 PM 36.0208 -99.4942 272° West 348 400 36,000  Level Kansas City Center
Thu 04:44:09 PM 36.0247 -99.6136 272° West 347 399 36,000  Level Kansas City Center
Thu 04:45:13 PM 36.0289 -99.7619 272° West 357 411 36,000  Level Kansas City Center
Thu 04:46:13 PM 36.0314 -99.8836 271° West 355 409 36,000  Level Kansas City Center
Thu 04:47:14 PM 36.0344 -100.0061 272° West 357 411 36,000  Level Kansas City Center
Thu 04:48:17 PM 36.0372 -100.1278 272° West 355 409 36,000  Level Kansas City Center
Thu 04:49:21 PM 36.0408 -100.2494 272° West 354 407 36,000  Level Kansas City Center
Thu 04:51:22 PM 36.0458 -100.5161 271° West 353 406 36,000  Level Kansas City Center
Thu 04:52:26 PM 36.0497 -100.6378 272° West 354 407 36,000  Level Kansas City Center
Thu 04:53:27 PM 36.0517 -100.7508 271° West 355 409 36,000  Level Kansas City Center
Thu 04:54:31 PM 36.0533 -100.8728 271° West 356 410 36,000  Level Kansas City Center
Thu 04:55:43 PM 36.0567 -101.0317 272° West 359 413 36,000  Level Albuquerque Center
Thu 04:56:45 PM 36.0592 -101.1564 271° West 361 415 36,000  Level Albuquerque Center
Thu 04:57:47 PM 36.0617 -101.2922 271° West 361 415 36,000  Level Albuquerque Center
Thu 04:58:49 PM 36.0636 -101.4178 271° West 365 420 36,000  Level Albuquerque Center
Thu 04:59:51 PM 36.0653 -101.5419 271° West 365 420 36,000  Level Albuquerque Center
Thu 05:00:54 PM 36.0678 -101.6903 271° West 363 418 36,000  Level Albuquerque Center
Thu 05:01:56 PM 36.0683 -101.8144 270° West 363 418 36,000  Level Albuquerque Center
Thu 05:02:58 PM 36.0697 -101.9392 271° West 365 420 36,000  Level Albuquerque Center
Thu 05:04:00 PM 36.0708 -102.0669 271° West 370 426 36,000  Level Albuquerque Center
Thu 05:05:02 PM 36.0719 -102.1931 271° West 371 427 36,000  Level Albuquerque Center
Thu 05:06:04 PM 36.0736 -102.3464 271° West 372 428 36,000  Level Albuquerque Center
Thu 05:07:06 PM 36.0725 -102.4736 269° West 373 429 36,000  Level Albuquerque Center
Thu 05:08:08 PM 36.0744 -102.5992 271° West 369 425 36,000  Level Albuquerque Center
Thu 05:09:10 PM 36.0747 -102.7267 270° West 371 427 36,000  Level Albuquerque Center
Thu 05:10:12 PM 36.0744 -102.8511 270° West 367 422 36,000  Level Albuquerque Center
Thu 05:11:14 PM 36.0756 -102.9969 271° West 369 425 36,000  Level Albuquerque Center
Thu 05:12:16 PM 36.0747 -103.1233 270° West 367 422 36,000  Level Albuquerque Center
Thu 05:13:18 PM 36.0758 -103.2508 271° West 369 425 36,000  Level Albuquerque Center
Thu 05:14:20 PM 36.0753 -103.3772 270° West 368 423 36,000  Level Albuquerque Center
Thu 05:15:23 PM 36.0753 -103.5056 270° West 371 427 36,000  Level Albuquerque Center
Thu 05:16:25 PM 36.0739 -103.6547 269° West 370 426 36,000  Level Albuquerque Center
Thu 05:17:27 PM 36.0736 -103.7817 270° West 369 425 36,000  Level Albuquerque Center
Thu 05:18:29 PM 36.0725 -103.9103 269° West 371 427 36,000  Level Albuquerque Center
Thu 05:19:31 PM 36.0722 -104.0375 270° West 370 426 36,000  Level Albuquerque Center
Thu 05:20:33 PM 36.0706 -104.1636 269° West 368 423 36,000  Level Albuquerque Center
Thu 05:21:35 PM 36.0700 -104.2889 270° West 364 419 36,000  Level Albuquerque Center
Thu 05:22:37 PM 36.0686 -104.4361 269° West 366 421 36,000  Level Albuquerque Center
Thu 05:23:39 PM 36.0675 -104.5600 269° West 362 417 36,000  Level Albuquerque Center
Thu 05:24:41 PM 36.0661 -104.6856 269° West 363 418 36,000  Level Albuquerque Center
Thu 05:25:43 PM 36.0650 -104.8103 269° West 363 418 36,000  Level Albuquerque Center
Thu 05:26:45 PM 36.0614 -104.9408 268° West 372 428 36,000  Level Albuquerque Center
Thu 05:27:47 PM 36.0592 -105.0678 269° West 369 425 36,000  Level Albuquerque Center
Thu 05:28:49 PM 36.0572 -105.2147 269° West 367 422 36,000 48 Level Albuquerque Center
Thu 05:29:51 PM 36.0539 -105.3439 268° West 370 426 36,100 484 Climbing Albuquerque Center
Thu 05:30:53 PM 36.0469 -105.4706 266° West 369 425 37,000 774 Climbing Albuquerque Center
Thu 05:31:55 PM 36.0344 -105.6006 263° West 369 425 37,700 484 Climbing Albuquerque Center
Thu 05:32:57 PM 36.0231 -105.7261 264° West 370 426 38,000 145 Climbing Albuquerque Center
Thu 05:33:59 PM 36.0108 -105.8525 263° West 371 427 38,000  Level Albuquerque Center
Thu 05:35:01 PM 35.9989 -105.9794 263° West 373 429 38,000  Level Albuquerque Center
Thu 05:36:03 PM 35.9861 -106.1092 263° West 380 437 38,000  Level Albuquerque Center
Thu 05:37:06 PM 35.9719 -106.2683 264° West 389 448 38,000  Level Albuquerque Center
Thu 05:38:08 PM 35.9592 -106.3986 263° West 387 445 38,000  Level Albuquerque Center
Thu 05:39:10 PM 35.9442 -106.5308 262° West 382 440 38,000  Level Albuquerque Center
Thu 05:40:12 PM 35.9319 -106.6572 263° West 383 441 38,000  Level Albuquerque Center
Thu 05:41:14 PM 35.9189 -106.7867 263° West 383 441 38,000  Level Albuquerque Center
Thu 05:42:16 PM 35.9053 -106.9253 263° West 381 438 38,000  Level Albuquerque Center
Thu 05:43:18 PM 35.8894 -107.0678 262° West 379 436 38,000  Level Albuquerque Center
Thu 05:44:20 PM 35.8753 -107.1919 262° West 380 437 38,000  Level Albuquerque Center
Thu 05:45:21 PM 35.8597 -107.3364 262° West 381 438 38,000  Level Albuquerque Center
Thu 05:46:23 PM 35.8467 -107.4583 263° West 377 434 38,000  Level Albuquerque Center
Thu 05:47:25 PM 35.8319 -107.6003 263° West 375 432 38,000  Level Albuquerque Center
Thu 05:48:27 PM 35.8175 -107.7217 262° West 374 430 38,000  Level Albuquerque Center
Thu 05:49:29 PM 35.8028 -107.8636 263° West 373 429 38,000  Level Albuquerque Center
Thu 05:50:31 PM 35.7889 -107.9861 262° West 376 433 38,000  Level Albuquerque Center
Thu 05:51:33 PM 35.7744 -108.1094 262° West 378 435 38,000  Level Albuquerque Center
Thu 05:52:35 PM 35.7581 -108.2550 262° West 382 440 38,000  Level Albuquerque Center
Thu 05:53:37 PM 35.7436 -108.3794 262° West 383 441 38,000  Level Albuquerque Center
Thu 05:54:39 PM 35.7256 -108.5272 261° West 387 445 38,000  Level Albuquerque Center
Thu 05:55:41 PM 35.7100 -108.6542 261° West 389 448 38,000  Level Albuquerque Center
Thu 05:56:43 PM 35.6928 -108.8025 262° West 389 448 38,000  Level Albuquerque Center
Thu 05:57:45 PM 35.6767 -108.9292 261° West 390 449 38,000  Level Albuquerque Center
Thu 05:58:47 PM 35.6617 -109.0556 262° West 390 449 38,000  Level Albuquerque Center
Thu 05:59:48 PM 35.6433 -109.2031 261° West 388 447 38,000  Level Albuquerque Center
Thu 06:00:50 PM 35.6264 -109.3292 261° West 389 448 38,000  Level Albuquerque Center
Thu 06:01:52 PM 35.6086 -109.4733 261° West 384 442 38,000  Level Albuquerque Center
Thu 06:02:54 PM 35.5914 -109.5961 260° West 382 440 38,000  Level Albuquerque Center
Thu 06:03:56 PM 35.5725 -109.7406 261° West 384 442 38,000  Level Albuquerque Center
Thu 06:04:58 PM 35.5556 -109.8639 260° West 382 440 38,000  Level Albuquerque Center
Thu 06:06:00 PM 35.5581 -109.9878 271° West 380 437 38,000  Level Albuquerque Center
Thu 06:07:02 PM 35.5619 -110.1353 272° West 385 443 38,000  Level Albuquerque Center
Thu 06:08:04 PM 35.5664 -110.2650 272° West 392 451 38,000  Level Albuquerque Center
Thu 06:09:06 PM 35.5711 -110.4153 272° West 395 455 38,000  Level Albuquerque Center
Thu 06:10:08 PM 35.5733 -110.5450 271° West 396 456 38,000  Level Albuquerque Center
Thu 06:11:09 PM 35.5778 -110.6964 272° West 397 457 38,000  Level Albuquerque Center
Thu 06:12:11 PM 35.5822 -110.8250 272° West 396 456 38,000  Level Albuquerque Center
Thu 06:13:13 PM 35.5867 -110.9769 272° West 396 456 38,000  Level Albuquerque Center
Thu 06:14:15 PM 35.5886 -111.1075 271° West 400 460 38,000 -484 Level Albuquerque Center
Thu 06:15:17 PM 35.5961 -111.2619 273° West 401 461 37,000 -1,839 Descending Albuquerque Center
Thu 06:16:19 PM 35.5983 -111.3911 271° West 397 457 34,200 -2,806 Descending Albuquerque Center
Thu 06:17:21 PM 35.5981 -111.5228 270° West 406 467 31,200 -2,032 Descending Albuquerque Center
Thu 06:18:23 PM 35.6022 -111.6608 272° West 409 471 30,000 -581 Descending Albuquerque Center
Thu 06:19:25 PM 35.6050 -111.8244 271° West 404 465 30,000  Level Albuquerque Center
Thu 06:20:26 PM 35.6083 -111.9636 272° West 406 467 30,000  Level Albuquerque Center
Thu 06:21:28 PM 35.6103 -112.1028 271° West 410 472 30,000  Level Albuquerque Center
Thu 06:22:30 PM 35.6131 -112.2417 271° West 410 472 30,000  Level Albuquerque Center
Thu 06:23:37 PM 35.6147 -112.4078 271° West 410 472 30,000  Level Los Angeles Center
Thu 06:24:40 PM 35.6164 -112.5472 271° West 412 474 30,000  Level Los Angeles Center
Thu 06:25:42 PM 35.6189 -112.6956 271° West 415 478 30,000  Level Los Angeles Center
Thu 06:26:44 PM 35.6197 -112.8392 270° West 419 482 30,000  Level Los Angeles Center
Thu 06:27:46 PM 35.6211 -112.9819 271° West 421 484 30,000  Level Los Angeles Center
Thu 06:28:48 PM 35.6225 -113.1553 271° West 422 486 30,000  Level Los Angeles Center
Thu 06:29:50 PM 35.6233 -113.2828 270° West 424 488 30,000 -919 Level Los Angeles Center
Thu 06:30:52 PM 35.6244 -113.4267 271° West 424 488 28,100 -2,468 Descending Los Angeles Center
Thu 06:31:54 PM 35.6306 -113.5942 273° West 412 474 24,900 -2,758 Descending Los Angeles Center
Thu 06:32:56 PM 35.6511 -113.7300 281° West 405 466 22,400 -2,419 Descending Los Angeles Center
Thu 06:33:58 PM 35.6700 -113.8628 280° West 396 456 19,900 -2,448 Descending Los Angeles Center
Thu 06:35:01 PM 35.6883 -113.9925 280° West 384 442 17,300 -2,352 Descending Los Angeles Center
Thu 06:36:03 PM 35.7067 -114.1183 280° West 377 434 15,000 -2,447 Descending Los Angeles Center
Thu 06:36:44 PM 35.7211 -114.2214 280° West 378 435 13,100 -2,323 Descending Los Angeles Center
Thu 06:37:05 PM 35.7256 -114.2636 277° West 367 422 12,600 -1,116 Descending Los Angeles Center
Thu 06:37:27 PM 35.7331 -114.3128 281° West 363 418 12,300 -774 Descending Los Angeles Center
Thu 06:38:07 PM 35.7411 -114.3753 279° West 339 390 11,800 -1,273 Descending Los Angeles Center
Thu 06:38:33 PM 35.7731 -114.4136 316° Northwest 322 371 10,900 -1,161 Descending Los Angeles Center
Thu 06:39:09 PM 35.8036 -114.4467 319° Northwest 312 359 10,600 -885 Descending Los Angeles Center
Thu 06:39:34 PM 35.8356 -114.4800 320° Northwest 291 335 10,000 -1,258 Descending Los Angeles Center
Thu 06:41:13 PM 35.9322 -114.5889 318° Northwest 284 327 8,000 -1,034 Descending Los Angeles Center
Thu 06:41:30 PM 35.9419 -114.6169 293° West 279 321 8,000  Level Los Angeles Center
Thu 06:42:15 PM 35.9706 -114.6706 303° West 278 320 8,000 -112 Level Los Angeles Center
Thu 06:43:17 PM 36.0122 -114.7508 303° West 278 320 7,800 -867 Descending Los Angeles Center
Thu 06:43:38 PM 36.0236 -114.7811 295° West 269 310 6,800 -1,238 Descending Los Angeles Center
Thu 06:44:20 PM 36.0428 -114.8317 295° West 271 312 6,500 -1,154 Descending Los Angeles Center
Thu 06:45:22 PM 36.0647 -114.9147 288° West 261 300 4,800 -1,519 Descending Los Angeles Center
Thu 06:45:39 PM 36.0694 -114.9494 280° West 233 268 4,500 -581 Descending Los Angeles Center
Thu 06:46:24 PM 36.0736 -114.9875 278° West 234 269 4,200 -787 Descending Los Angeles Center
Thu 06:46:40 PM 36.0739 -115.0200 271° West 191 220 3,700 -1,161 Descending Los Angeles Center
Thu 06:47:26 PM 36.0739 -115.0611 270° West 196 226 3,000 -806 Descending Los Angeles Center
Thu 06:47:47 PM 36.0744 -115.0808 272° West 160 184 2,800 -774 Descending Los Angeles Center
Thu 06:48:28 PM 36.0739 -115.1158 269° West 176 203 2,200 -878 Descending Los Angeles Center
Thu 06:50:00 PM 36.0667 -115.1500 270° West  Level FlightAware Approximate

Login

Don't have an account? Register now (free) for customized features, flight alerts, and more!